createdAt,value
2023-03-24T00:00:48.964Z,100461.34
2023-03-24T00:01:58.482Z,100465.13
2023-03-24T00:03:03.110Z,100469.15
2023-03-24T00:04:06.250Z,100467.77
2023-03-24T00:05:16.025Z,100465.34
2023-03-24T00:06:22.860Z,100465.63
2023-03-24T00:07:26.283Z,100466.70
2023-03-24T00:08:31.571Z,100470.13
2023-03-24T00:09:34.383Z,100468.23
2023-03-24T00:10:37.206Z,100471.52
2023-03-24T00:11:40.274Z,100468.02
2023-03-24T00:12:43.130Z,100464.80
2023-03-24T00:13:47.559Z,100465.33
2023-03-24T00:14:50.355Z,100464.27
2023-03-24T00:15:53.334Z,100460.80
2023-03-24T00:16:58.636Z,100465.25
2023-03-24T00:18:01.650Z,100462.91
2023-03-24T00:19:04.917Z,100464.34
2023-03-24T00:20:14.552Z,100465.05
2023-03-24T00:21:18.382Z,100467.06
2023-03-24T00:22:21.382Z,100471.79
2023-03-24T00:23:33.541Z,100474.33
2023-03-24T00:24:36.577Z,100472.65
2023-03-24T00:25:40.261Z,100470.46
2023-03-24T00:26:43.066Z,100472.56
2023-03-24T00:27:49.033Z,100468.53
2023-03-24T00:28:53.002Z,100470.51
2023-03-24T00:29:59.783Z,100466.36
2023-03-24T00:31:05.335Z,100468.73
2023-03-24T00:32:08.400Z,100464.24
2023-03-24T00:33:11.429Z,100463.02
2023-03-24T00:34:14.500Z,100459.37
2023-03-24T00:35:18.476Z,100462.98
2023-03-24T00:36:24.525Z,100461.63
2023-03-24T00:37:27.567Z,100464.63
2023-03-24T00:38:30.664Z,100465.36
2023-03-24T00:39:33.642Z,100463.86
2023-03-24T00:40:36.633Z,100459.55
2023-03-24T00:41:39.614Z,100457.36
2023-03-24T00:42:45.988Z,100456.16
2023-03-24T00:43:50.873Z,100452.32
2023-03-24T00:44:54.001Z,100452.03
2023-03-24T00:46:08.644Z,100454.05
2023-03-24T00:47:11.696Z,100452.48
2023-03-24T00:48:36.374Z,100452.10
2023-03-24T00:49:48.126Z,100452.14
2023-03-24T00:50:52.094Z,100451.08
2023-03-24T00:51:58.287Z,100451.27
2023-03-24T00:53:02.126Z,100451.99
2023-03-24T00:54:06.703Z,100453.07
2023-03-24T00:55:15.834Z,100450.88
2023-03-24T00:56:18.827Z,100449.15
2023-03-24T00:57:22.261Z,100450.27
2023-03-24T00:58:25.987Z,100446.98
2023-03-24T00:59:29.842Z,100446.19
2023-03-24T01:00:33.157Z,100442.98
2023-03-24T01:01:37.838Z,100445.25
2023-03-24T01:02:40.946Z,100444.88
2023-03-24T01:03:48.195Z,100447.75
2023-03-24T01:04:56.571Z,100445.23
2023-03-24T01:06:04.996Z,100449.61
2023-03-24T01:07:11.001Z,100451.67
2023-03-24T01:08:20.955Z,100449.21
2023-03-24T01:09:28.178Z,100448.98
2023-03-24T01:10:34.394Z,100451.64
2023-03-24T01:11:40.317Z,100451.11
2023-03-24T01:12:43.480Z,100449.00
2023-03-24T01:13:47.192Z,100449.75
2023-03-24T01:14:51.250Z,100450.81
2023-03-24T01:15:55.986Z,100448.96
2023-03-24T01:16:59.950Z,100447.88
2023-03-24T01:18:03.079Z,100446.84
2023-03-24T01:19:06.835Z,100452.67
2023-03-24T01:20:11.821Z,100449.95
2023-03-24T01:21:14.688Z,100448.70
2023-03-24T01:22:18.135Z,100443.02
2023-03-24T01:23:23.787Z,100444.02
2023-03-24T01:24:26.834Z,100444.13
2023-03-24T01:25:30.598Z,100446.37
2023-03-24T01:26:34.238Z,100447.27
2023-03-24T01:27:37.674Z,100449.92
2023-03-24T01:28:43.697Z,100447.14
2023-03-24T01:29:46.983Z,100446.71
2023-03-24T01:31:52.475Z,100445.75
2023-03-24T01:32:57.053Z,100445.58
2023-03-24T01:34:00.007Z,100443.48
2023-03-24T01:35:03.874Z,100442.00
2023-03-24T01:36:07.856Z,100443.45
2023-03-24T01:37:11.209Z,100443.52
2023-03-24T01:38:15.582Z,100442.83
2023-03-24T01:39:18.510Z,100443.49
2023-03-24T01:40:25.071Z,100439.79
2023-03-24T01:41:33.143Z,100441.11
2023-03-24T01:42:39.786Z,100442.30
2023-03-24T01:43:43.405Z,100439.52
2023-03-24T01:44:51.629Z,100441.64
2023-03-24T01:46:02.553Z,100442.39
2023-03-24T01:47:08.989Z,100442.92
2023-03-24T01:48:24.103Z,100441.86
2023-03-24T01:49:37.207Z,100436.64
2023-03-24T01:50:43.176Z,100432.13
2023-03-24T01:51:49.720Z,100433.80
2023-03-24T01:52:52.655Z,100436.17
2023-03-24T01:54:31.024Z,100436.64
2023-03-24T01:55:38.765Z,100437.38
2023-03-24T01:56:50.031Z,100433.95
2023-03-24T01:57:56.474Z,100433.55
2023-03-24T01:59:10.045Z,100430.02
2023-03-24T02:00:30.933Z,100426.85
2023-03-24T02:02:03.015Z,100425.09
2023-03-24T02:03:18.524Z,100423.07
2023-03-24T02:04:30.429Z,100420.72
2023-03-24T02:05:39.986Z,100419.34
2023-03-24T02:06:45.339Z,100419.96
2023-03-24T02:08:11.468Z,100417.73
2023-03-24T02:09:14.549Z,100424.27
2023-03-24T02:10:20.156Z,100425.86
2023-03-24T02:11:26.671Z,100430.84
2023-03-24T02:12:33.067Z,100431.16
2023-03-24T02:13:38.740Z,100432.73
2023-03-24T02:14:42.541Z,100434.20
2023-03-24T02:16:03.546Z,100435.73
2023-03-24T02:17:48.222Z,100433.17
2023-03-24T02:19:25.175Z,100432.59
2023-03-24T02:20:39.274Z,100429.80
2023-03-24T02:22:04.398Z,100430.75
2023-03-24T02:23:22.542Z,100428.70
2023-03-24T02:25:16.479Z,100425.55
2023-03-24T02:26:45.687Z,100435.93
2023-03-24T02:28:03.550Z,100443.33
2023-03-24T02:29:35.080Z,100443.81
2023-03-24T02:30:49.162Z,100442.17
2023-03-24T02:32:23.707Z,100439.80
2023-03-24T02:33:57.577Z,100434.32
2023-03-24T02:35:31.517Z,100431.35
2023-03-24T02:37:05.061Z,100432.35
2023-03-24T02:38:46.722Z,100429.14
2023-03-24T02:40:01.206Z,100427.98
2023-03-24T02:41:17.133Z,100424.01
2023-03-24T02:42:31.053Z,100423.48
2023-03-24T02:43:39.689Z,100418.96
2023-03-24T02:44:42.522Z,100416.90
2023-03-24T02:46:14.137Z,100414.69
2023-03-24T02:47:29.621Z,100411.89
2023-03-24T02:49:08.818Z,100412.27
2023-03-24T02:50:39.193Z,100407.58
2023-03-24T02:51:56.252Z,100407.67
2023-03-24T02:53:29.399Z,100407.29
2023-03-24T02:55:13.034Z,100407.27
2023-03-24T02:56:35.007Z,100404.65
2023-03-24T02:57:52.881Z,100404.07
2023-03-24T02:59:37.445Z,100403.00
2023-03-24T03:00:52.713Z,100404.02
2023-03-24T03:02:18.233Z,100400.20
2023-03-24T03:03:35.763Z,100400.25
2023-03-24T03:04:53.492Z,100398.40
2023-03-24T03:06:06.158Z,100396.59
2023-03-24T03:07:11.671Z,100396.23
2023-03-24T03:08:17.591Z,100391.73
2023-03-24T03:09:23.552Z,100396.02
2023-03-24T03:10:35.347Z,100394.66
2023-03-24T03:11:41.558Z,100393.55
2023-03-24T03:12:49.482Z,100393.09
2023-03-24T03:14:25.227Z,100392.57
2023-03-24T03:15:34.855Z,100394.63
2023-03-24T03:16:46.761Z,100393.75
2023-03-24T03:17:59.072Z,100389.79
2023-03-24T03:19:09.944Z,100385.30
2023-03-24T03:20:20.752Z,100382.48
2023-03-24T03:21:27.215Z,100380.20
2023-03-24T03:22:43.171Z,100386.52
2023-03-24T03:24:02.189Z,100383.78
2023-03-24T03:25:06.902Z,100389.90
2023-03-24T03:26:16.508Z,100391.09
2023-03-24T03:27:27.365Z,100391.09
2023-03-24T03:28:36.949Z,100395.03
2023-03-24T03:29:46.196Z,100388.13
2023-03-24T03:30:58.612Z,100388.78
2023-03-24T03:32:08.514Z,100386.86
2023-03-24T03:33:29.817Z,100387.15
2023-03-24T03:34:44.708Z,100384.72
2023-03-24T03:35:59.828Z,100381.48
2023-03-24T03:37:22.411Z,100381.14
2023-03-24T03:39:04.070Z,100382.33
2023-03-24T03:40:12.650Z,100384.07
2023-03-24T03:41:19.221Z,100383.23
2023-03-24T03:42:23.624Z,100381.76
2023-03-24T03:43:29.014Z,100377.20
2023-03-24T03:44:31.992Z,100375.02
2023-03-24T03:45:35.657Z,100371.13
2023-03-24T03:46:39.357Z,100367.50
2023-03-24T03:47:44.140Z,100369.15
2023-03-24T03:48:47.307Z,100368.29
2023-03-24T03:49:51.363Z,100368.08
2023-03-24T03:51:10.209Z,100369.02
2023-03-24T03:52:17.877Z,100373.71
2023-03-24T03:53:27.000Z,100374.70
2023-03-24T03:54:31.892Z,100374.41
2023-03-24T03:55:35.616Z,100372.86
2023-03-24T03:56:39.709Z,100371.40
2023-03-24T03:57:56.040Z,100374.31
2023-03-24T03:59:10.074Z,100371.96
2023-03-24T04:00:23.599Z,100371.59
2023-03-24T04:01:58.620Z,100371.27
2023-03-24T04:03:33.398Z,100370.36
2023-03-24T04:05:05.631Z,100369.55
2023-03-24T04:06:27.783Z,100362.54
2023-03-24T04:08:08.449Z,100363.93
2023-03-24T04:09:55.984Z,100356.08
2023-03-24T04:11:14.083Z,100354.65
2023-03-24T04:12:45.830Z,100350.75
2023-03-24T04:14:17.966Z,100355.31
2023-03-24T04:15:36.977Z,100350.95
2023-03-24T04:17:15.342Z,100351.17
2023-03-24T04:18:49.705Z,100344.85
2023-03-24T04:20:22.697Z,100342.63
2023-03-24T04:22:05.065Z,100340.13
2023-03-24T04:23:30.296Z,100338.23
2023-03-24T04:24:55.338Z,100335.94
2023-03-24T04:26:14.841Z,100329.28
2023-03-24T04:27:27.208Z,100329.20
2023-03-24T04:28:41.901Z,100322.16
2023-03-24T04:30:17.541Z,100319.55
2023-03-24T04:31:34.215Z,100319.11
2023-03-24T04:32:47.697Z,100321.16
2023-03-24T04:34:04.340Z,100321.00
2023-03-24T04:35:20.683Z,100320.27
2023-03-24T04:36:54.452Z,100315.54
2023-03-24T04:38:08.747Z,100315.29
2023-03-24T04:39:17.099Z,100309.36
2023-03-24T04:40:26.728Z,100307.61
2023-03-24T04:41:32.009Z,100305.31
2023-03-24T04:42:52.470Z,100300.27
2023-03-24T04:43:59.452Z,100297.45
2023-03-24T04:45:04.713Z,100294.65
2023-03-24T04:46:24.276Z,100300.04
2023-03-24T04:47:38.555Z,100301.43
2023-03-24T04:48:57.338Z,100299.24
2023-03-24T04:50:11.428Z,100300.44
2023-03-24T04:51:17.579Z,100299.67
2023-03-24T04:52:29.477Z,100297.45
2023-03-24T04:53:32.897Z,100298.65
2023-03-24T04:54:36.333Z,100296.95
2023-03-24T04:56:09.764Z,100294.55
2023-03-24T04:57:38.956Z,100294.19
2023-03-24T04:58:41.859Z,100294.66
2023-03-24T04:59:45.132Z,100291.80
2023-03-24T05:00:50.143Z,100295.27
2023-03-24T05:01:53.708Z,100292.42
2023-03-24T05:03:04.940Z,100288.70
2023-03-24T05:04:08.587Z,100282.70
2023-03-24T05:05:12.141Z,100283.73
2023-03-24T05:06:19.754Z,100280.48
2023-03-24T05:07:23.313Z,100282.34
2023-03-24T05:08:29.525Z,100275.10
2023-03-24T05:09:32.929Z,100275.51
2023-03-24T05:10:36.732Z,100278.20
2023-03-24T05:11:40.795Z,100277.04
2023-03-24T05:12:44.265Z,100274.93
2023-03-24T05:13:55.984Z,100272.55
2023-03-24T05:14:58.917Z,100271.30
2023-03-24T05:16:02.029Z,100272.55
2023-03-24T05:17:13.346Z,100272.06
2023-03-24T05:18:16.220Z,100270.57
2023-03-24T05:19:19.172Z,100269.36
2023-03-24T05:20:22.403Z,100269.52
2023-03-24T05:21:26.320Z,100265.64
2023-03-24T05:22:29.314Z,100260.05
2023-03-24T05:23:32.090Z,100252.77
2023-03-24T05:24:34.985Z,100253.43
2023-03-24T05:25:37.962Z,100252.42
2023-03-24T05:26:41.296Z,100249.52
2023-03-24T05:27:54.954Z,100253.02
2023-03-24T05:29:01.396Z,100248.65
2023-03-24T05:30:06.430Z,100247.10
2023-03-24T05:31:10.006Z,100249.23
2023-03-24T05:32:22.967Z,100244.02
2023-03-24T05:33:26.516Z,100244.45
2023-03-24T05:34:29.522Z,100238.83
2023-03-24T05:35:45.501Z,100235.75
2023-03-24T05:36:49.003Z,100238.45
2023-03-24T05:37:53.841Z,100238.00
2023-03-24T05:38:56.908Z,100239.98
2023-03-24T05:40:03.453Z,100237.70
2023-03-24T05:41:26.533Z,100239.41
2023-03-24T05:42:29.378Z,100239.65
2023-03-24T05:43:33.800Z,100236.67
2023-03-24T05:44:45.791Z,100237.32
2023-03-24T05:45:56.297Z,100234.00
2023-03-24T05:47:04.799Z,100227.37
2023-03-24T05:48:08.014Z,100226.42
2023-03-24T05:49:26.143Z,100223.00
2023-03-24T05:50:30.101Z,100224.73
2023-03-24T05:51:32.980Z,100222.38
2023-03-24T05:52:39.033Z,100220.04
2023-03-24T05:53:56.167Z,100212.87
2023-03-24T05:55:19.419Z,100212.73
2023-03-24T05:56:24.473Z,100210.98
2023-03-24T05:57:36.824Z,100214.23
2023-03-24T05:58:51.556Z,100214.55
2023-03-24T05:59:54.632Z,100215.08
2023-03-24T06:01:18.722Z,100216.81
2023-03-24T06:02:21.973Z,100215.16
2023-03-24T06:03:35.229Z,100211.40
2023-03-24T06:04:48.985Z,100210.98
2023-03-24T06:05:53.720Z,100207.89
2023-03-24T06:06:59.137Z,100198.04
2023-03-24T06:08:04.625Z,100201.53
2023-03-24T06:09:10.175Z,100197.90
2023-03-24T06:10:14.576Z,100199.56
2023-03-24T06:11:22.194Z,100198.38
2023-03-24T06:12:31.644Z,100195.94
2023-03-24T06:13:37.391Z,100191.14
2023-03-24T06:14:40.754Z,100193.63
2023-03-24T06:15:49.622Z,100190.40
2023-03-24T06:17:08.030Z,100195.88
2023-03-24T06:18:14.372Z,100191.76
2023-03-24T06:19:18.089Z,100194.23
2023-03-24T06:20:30.035Z,100193.65
2023-03-24T06:21:39.636Z,100199.21
2023-03-24T06:22:44.553Z,100195.99
2023-03-24T06:23:50.981Z,100200.41
2023-03-24T06:25:00.426Z,100192.77
2023-03-24T06:26:10.099Z,100192.28
2023-03-24T06:27:18.725Z,100192.61
2023-03-24T06:28:23.008Z,100195.20
2023-03-24T06:29:26.519Z,100187.21
2023-03-24T06:30:29.697Z,100186.59
2023-03-24T06:31:32.742Z,100190.91
2023-03-24T06:32:38.730Z,100181.77
2023-03-24T06:33:42.730Z,100180.92
2023-03-24T06:34:45.675Z,100181.02
2023-03-24T06:35:53.362Z,100180.41
2023-03-24T06:36:56.549Z,100178.72
2023-03-24T06:37:59.497Z,100173.00
2023-03-24T06:39:03.001Z,100172.79
2023-03-24T06:40:10.889Z,100167.54
2023-03-24T06:41:17.779Z,100168.38
2023-03-24T06:42:20.892Z,100167.30
2023-03-24T06:43:23.786Z,100169.24
2023-03-24T06:44:29.276Z,100172.86
2023-03-24T06:45:32.979Z,100172.66
2023-03-24T06:46:36.819Z,100172.64
2023-03-24T06:47:40.009Z,100168.02
2023-03-24T06:48:43.055Z,100164.52
2023-03-24T06:49:46.362Z,100164.80
2023-03-24T06:50:49.374Z,100156.69
2023-03-24T06:51:52.526Z,100150.47
2023-03-24T06:52:56.107Z,100145.52
2023-03-24T06:53:59.475Z,100145.77
2023-03-24T06:55:02.852Z,100140.56
2023-03-24T06:56:06.217Z,100145.95
2023-03-24T06:57:14.194Z,100143.42
2023-03-24T06:58:38.032Z,100141.52
2023-03-24T06:59:42.937Z,100137.48
2023-03-24T07:00:47.043Z,100135.63
2023-03-24T07:02:17.547Z,100130.59
2023-03-24T07:03:23.517Z,100131.47
2023-03-24T07:05:01.264Z,100126.80
2023-03-24T07:06:14.353Z,100122.50
2023-03-24T07:08:37.234Z,100117.80
2023-03-24T07:09:41.653Z,100113.96
2023-03-24T07:10:45.403Z,100106.87
2023-03-24T07:11:48.640Z,100107.97
2023-03-24T07:12:51.683Z,100107.54
2023-03-24T07:13:55.167Z,100119.28
2023-03-24T07:14:58.434Z,100119.23
2023-03-24T07:16:01.571Z,100117.70
2023-03-24T07:17:04.812Z,100114.89
2023-03-24T07:18:14.560Z,100113.80
2023-03-24T07:19:19.953Z,100121.34
2023-03-24T07:20:27.131Z,100119.98
2023-03-24T07:21:50.341Z,100112.25
2023-03-24T07:22:58.371Z,100104.71
2023-03-24T07:24:19.982Z,100096.99
2023-03-24T07:25:41.248Z,100098.27
2023-03-24T07:26:58.712Z,100095.61
2023-03-24T07:28:02.251Z,100097.05
2023-03-24T07:29:05.066Z,100095.54
2023-03-24T07:30:14.664Z,100091.18
2023-03-24T07:31:22.995Z,100087.59
2023-03-24T07:32:34.751Z,100083.73
2023-03-24T07:33:38.413Z,100079.27
2023-03-24T07:34:43.870Z,100076.90
2023-03-24T07:35:47.126Z,100075.02
2023-03-24T07:36:50.140Z,100074.89
2023-03-24T07:37:53.094Z,100073.48
2023-03-24T07:38:56.711Z,100074.84
2023-03-24T07:40:06.999Z,100071.05
2023-03-24T07:41:10.857Z,100078.95
2023-03-24T07:42:16.668Z,100077.69
2023-03-24T07:43:42.366Z,100077.91
2023-03-24T07:44:59.928Z,100075.77
2023-03-24T07:46:02.896Z,100075.48
2023-03-24T07:47:06.231Z,100071.37
2023-03-24T07:48:09.292Z,100068.66
2023-03-24T07:49:19.436Z,100066.82
2023-03-24T07:50:41.215Z,100066.77
2023-03-24T07:52:06.405Z,100062.79
2023-03-24T07:53:15.022Z,100060.02
2023-03-24T07:54:18.567Z,100057.64
2023-03-24T07:55:24.393Z,100056.61
2023-03-24T07:56:31.820Z,100055.42
2023-03-24T07:57:37.377Z,100049.64
2023-03-24T07:58:43.601Z,100049.06
2023-03-24T07:59:52.687Z,100045.48
2023-03-24T08:01:03.689Z,100044.59
2023-03-24T08:02:21.221Z,100039.65
2023-03-24T08:03:33.943Z,100040.70
2023-03-24T08:04:56.594Z,100031.45
2023-03-24T08:06:22.749Z,100032.28
2023-03-24T08:07:27.121Z,100027.81
2023-03-24T08:08:31.729Z,100024.73
2023-03-24T08:09:34.677Z,100028.17
2023-03-24T08:10:37.589Z,100026.53
2023-03-24T08:11:40.786Z,100025.16
2023-03-24T08:12:43.658Z,100021.91
2023-03-24T08:13:46.614Z,100019.98
2023-03-24T08:14:49.493Z,100018.71
2023-03-24T08:15:53.425Z,100017.42
2023-03-24T08:16:56.412Z,100014.16
2023-03-24T08:17:59.364Z,100011.86
2023-03-24T08:19:02.420Z,100010.77
2023-03-24T08:20:14.495Z,100008.48
2023-03-24T08:21:18.018Z,100006.75
2023-03-24T08:22:20.969Z,100007.69
2023-03-24T08:23:24.232Z,100004.98
2023-03-24T08:24:27.031Z,100005.76
2023-03-24T08:25:30.493Z,100003.94
2023-03-24T08:26:35.439Z,100004.42
2023-03-24T08:27:40.228Z,100004.14
2023-03-24T08:28:43.210Z,100000.54
2023-03-24T08:29:46.520Z,99996.42
2023-03-24T08:30:49.694Z,99997.54
2023-03-24T08:31:52.883Z,99997.52
2023-03-24T08:32:59.364Z,99993.04
2023-03-24T08:34:04.854Z,99996.10
2023-03-24T08:35:08.016Z,99996.43
2023-03-24T08:36:10.993Z,99995.84
2023-03-24T08:37:14.009Z,99991.30
2023-03-24T08:38:18.823Z,99990.67
2023-03-24T08:39:24.371Z,99988.65
2023-03-24T08:40:29.772Z,99990.16
2023-03-24T08:41:35.632Z,99991.23
2023-03-24T08:42:38.541Z,99990.52
2023-03-24T08:43:41.406Z,99989.89
2023-03-24T08:44:44.975Z,99986.92
2023-03-24T08:45:48.163Z,99984.42
2023-03-24T08:46:51.177Z,99977.88
2023-03-24T08:47:55.536Z,99976.83
2023-03-24T08:48:59.534Z,99975.07
2023-03-24T08:50:02.415Z,99970.15
2023-03-24T08:51:14.637Z,99968.35
2023-03-24T08:52:22.278Z,99971.75
2023-03-24T08:53:25.215Z,99966.52
2023-03-24T08:54:28.320Z,99959.71
2023-03-24T08:55:32.314Z,99959.70
2023-03-24T08:56:35.436Z,99957.61
2023-03-24T08:57:38.400Z,99955.99
2023-03-24T08:58:41.344Z,99951.16
2023-03-24T08:59:44.373Z,99960.48
2023-03-24T09:00:48.801Z,99954.61
2023-03-24T09:01:51.877Z,99951.05
2023-03-24T09:02:55.956Z,99939.39
2023-03-24T09:03:59.443Z,99933.55
2023-03-24T09:05:02.956Z,99934.20
2023-03-24T09:06:06.343Z,99936.80
2023-03-24T09:07:10.468Z,99932.91
2023-03-24T09:08:18.022Z,99929.66
2023-03-24T09:09:20.869Z,99929.39
2023-03-24T09:10:23.908Z,99928.64
2023-03-24T09:11:26.929Z,99927.35
2023-03-24T09:12:29.749Z,99924.55
2023-03-24T09:13:32.750Z,99921.48
2023-03-24T09:14:36.039Z,99921.80
2023-03-24T09:15:39.063Z,99921.08
2023-03-24T09:16:48.806Z,99918.05
2023-03-24T09:17:51.877Z,99916.41
2023-03-24T09:18:54.862Z,99909.16
2023-03-24T09:19:58.140Z,99916.91
2023-03-24T09:21:01.988Z,99917.54
2023-03-24T09:22:04.859Z,99912.71
2023-03-24T09:23:07.730Z,99905.71
2023-03-24T09:24:10.856Z,99901.02
2023-03-24T09:25:19.129Z,99901.36
2023-03-24T09:26:23.069Z,99898.04
2023-03-24T09:27:25.964Z,99888.77
2023-03-24T09:28:28.842Z,99896.93
2023-03-24T09:29:31.694Z,99895.64
2023-03-24T09:30:35.278Z,99889.29
2023-03-24T09:31:38.594Z,99892.79
2023-03-24T09:32:41.797Z,99892.64
2023-03-24T09:33:44.835Z,99885.59
2023-03-24T09:34:47.910Z,99881.77
2023-03-24T09:36:00.077Z,99880.17
2023-03-24T09:37:05.351Z,99879.07
2023-03-24T09:38:08.196Z,99875.58
2023-03-24T09:39:11.034Z,99870.40
2023-03-24T09:40:21.460Z,99870.51
2023-03-24T09:41:26.918Z,99866.44
2023-03-24T09:42:33.955Z,99863.50
2023-03-24T09:43:41.707Z,99856.80
2023-03-24T09:44:50.157Z,99850.70
2023-03-24T09:45:57.074Z,99848.45
2023-03-24T09:47:05.787Z,99845.49
2023-03-24T09:48:26.469Z,99844.09
2023-03-24T09:49:33.767Z,99838.27
2023-03-24T09:50:49.069Z,99839.66
2023-03-24T09:52:00.574Z,99829.27
2023-03-24T09:53:26.550Z,99820.00
2023-03-24T09:54:41.062Z,99823.41
2023-03-24T09:55:45.334Z,99820.21
2023-03-24T09:56:50.912Z,99817.89
2023-03-24T09:58:00.595Z,99817.14
2023-03-24T09:59:07.671Z,99812.92
2023-03-24T10:00:23.239Z,99815.82
2023-03-24T10:01:27.103Z,99811.71
2023-03-24T10:02:31.684Z,99808.45
2023-03-24T10:03:34.810Z,99801.04
2023-03-24T10:04:37.808Z,99804.35
2023-03-24T10:06:14.114Z,99807.43
2023-03-24T10:07:40.712Z,99798.23
2023-03-24T10:09:04.673Z,99793.81
2023-03-24T10:10:24.494Z,99795.14
2023-03-24T10:11:35.278Z,99789.34
2023-03-24T10:12:48.120Z,99788.92
2023-03-24T10:14:01.484Z,99792.63
2023-03-24T10:15:37.406Z,99788.23
2023-03-24T10:17:05.764Z,99787.63
2023-03-24T10:18:12.018Z,99803.84
2023-03-24T10:19:27.221Z,99794.89
2023-03-24T10:20:49.763Z,99800.23
2023-03-24T10:22:12.565Z,99786.34
2023-03-24T10:23:53.001Z,99799.67
2023-03-24T10:25:08.142Z,99798.44
2023-03-24T10:26:29.519Z,99802.48
2023-03-24T10:27:53.856Z,99800.23
2023-03-24T10:28:59.515Z,99802.73
2023-03-24T10:30:16.633Z,99804.89
2023-03-24T10:31:28.128Z,99798.59
2023-03-24T10:32:35.325Z,99794.00
2023-03-24T10:33:43.526Z,99791.38
2023-03-24T10:34:52.835Z,99794.55
2023-03-24T10:36:08.269Z,99790.25
2023-03-24T10:37:14.507Z,99788.20
2023-03-24T10:38:20.807Z,99788.52
2023-03-24T10:39:28.630Z,99788.46
2023-03-24T10:40:47.657Z,99790.83
2023-03-24T10:41:52.709Z,99789.17
2023-03-24T10:43:06.840Z,99788.83
2023-03-24T10:44:14.138Z,99781.62
2023-03-24T10:45:27.137Z,99785.98
2023-03-24T10:46:32.181Z,99786.66
2023-03-24T10:47:36.597Z,99792.44
2023-03-24T10:48:45.547Z,99784.98
2023-03-24T10:50:12.329Z,99785.20
2023-03-24T10:51:19.513Z,99780.45
2023-03-24T10:52:24.619Z,99771.70
2023-03-24T10:53:27.709Z,99774.45
2023-03-24T10:54:31.979Z,99767.87
2023-03-24T10:55:39.984Z,99766.02
2023-03-24T10:56:46.844Z,99766.77
2023-03-24T10:57:55.128Z,99772.71
2023-03-24T10:58:58.223Z,99764.65
2023-03-24T11:00:19.024Z,99768.59
2023-03-24T11:01:30.688Z,99755.66
2023-03-24T11:02:34.152Z,99760.61
2023-03-24T11:03:38.106Z,99758.48
2023-03-24T11:04:45.327Z,99762.26
2023-03-24T11:05:48.415Z,99752.88
2023-03-24T11:07:05.473Z,99754.37
2023-03-24T11:08:14.551Z,99759.27
2023-03-24T11:09:22.536Z,99759.71
2023-03-24T11:10:26.405Z,99754.46
2023-03-24T11:11:31.794Z,99756.35
2023-03-24T11:12:40.897Z,99755.27
2023-03-24T11:13:55.864Z,99764.69
2023-03-24T11:15:21.239Z,99755.40
2023-03-24T11:16:32.046Z,99767.29
2023-03-24T11:17:34.943Z,99764.86
2023-03-24T11:18:38.924Z,99755.34
2023-03-24T11:19:52.638Z,99759.73
2023-03-24T11:21:04.013Z,99772.31
2023-03-24T11:22:07.562Z,99758.44
2023-03-24T11:23:27.878Z,99755.02
2023-03-24T11:24:31.490Z,99748.90
2023-03-24T11:25:39.138Z,99749.23
2023-03-24T11:26:47.022Z,99751.07
2023-03-24T11:27:59.374Z,99752.74
2023-03-24T11:29:09.984Z,99752.14
2023-03-24T11:30:14.251Z,99757.08
2023-03-24T11:31:30.842Z,99747.55
2023-03-24T11:32:35.269Z,99754.09
2023-03-24T11:33:56.741Z,99746.80
2023-03-24T11:35:09.199Z,99742.80
2023-03-24T11:36:30.989Z,99737.84
2023-03-24T11:37:36.827Z,99744.98
2023-03-24T11:38:39.818Z,99740.31
2023-03-24T11:39:44.382Z,99737.27
2023-03-24T11:40:58.315Z,99732.41
2023-03-24T11:42:10.614Z,99731.81
2023-03-24T11:43:22.890Z,99728.55
2023-03-24T11:44:26.024Z,99728.53
2023-03-24T11:45:42.123Z,99723.38
2023-03-24T11:46:48.632Z,99721.75
2023-03-24T11:47:54.258Z,99721.58
2023-03-24T11:48:59.739Z,99725.52
2023-03-24T11:50:11.400Z,99722.78
2023-03-24T11:51:38.773Z,99717.91
2023-03-24T11:53:07.784Z,99708.45
2023-03-24T11:54:15.138Z,99704.23
2023-03-24T11:55:25.068Z,99705.09
2023-03-24T11:56:40.637Z,99703.32
2023-03-24T11:57:56.460Z,99707.37
2023-03-24T11:59:14.440Z,99702.39
2023-03-24T12:00:29.467Z,99717.33
2023-03-24T12:01:47.203Z,99711.35
2023-03-24T12:03:09.801Z,99707.98
2023-03-24T12:04:19.483Z,99706.05
2023-03-24T12:05:33.497Z,99712.70
2023-03-24T12:07:18.712Z,99713.99
2023-03-24T12:08:43.237Z,99707.29
2023-03-24T12:10:05.207Z,99705.46
2023-03-24T12:11:19.357Z,99699.73
2023-03-24T12:12:41.735Z,99702.80
2023-03-24T12:13:50.682Z,99709.61
2023-03-24T12:15:25.117Z,99712.98
2023-03-24T12:17:03.957Z,99711.27
2023-03-24T12:18:18.741Z,99730.13
2023-03-24T12:19:31.053Z,99711.88
2023-03-24T12:20:45.272Z,99704.15
2023-03-24T12:21:54.045Z,99705.98
2023-03-24T12:23:12.770Z,99714.83
2023-03-24T12:24:37.381Z,99708.39
2023-03-24T12:25:53.244Z,99711.72
2023-03-24T12:27:00.376Z,99703.30
2023-03-24T12:28:08.816Z,99701.11
2023-03-24T12:29:49.841Z,99709.64
2023-03-24T12:30:58.828Z,99710.54
2023-03-24T12:32:21.560Z,99706.94
2023-03-24T12:33:50.513Z,99711.56
2023-03-24T12:35:04.034Z,99708.40
2023-03-24T12:36:31.800Z,99706.02
2023-03-24T12:37:46.880Z,99704.89
2023-03-24T12:38:59.878Z,99704.48
2023-03-24T12:40:11.821Z,99700.20
2023-03-24T12:41:17.984Z,99699.67
2023-03-24T12:42:24.461Z,99710.64
2023-03-24T12:43:52.230Z,99712.04
2023-03-24T12:45:13.922Z,99700.66
2023-03-24T12:46:40.625Z,99698.98
2023-03-24T12:48:11.722Z,99686.45
2023-03-24T12:49:15.248Z,99684.94
2023-03-24T12:50:42.435Z,99692.52
2023-03-24T12:51:55.949Z,99686.23
2023-03-24T12:53:08.730Z,99687.09
2023-03-24T12:54:26.295Z,99695.20
2023-03-24T12:55:43.346Z,99694.44
2023-03-24T12:57:02.289Z,99696.50
2023-03-24T12:58:22.689Z,99689.95
2023-03-24T13:00:01.581Z,99685.41
2023-03-24T13:01:19.298Z,99685.02
2023-03-24T13:02:30.764Z,99677.36
2023-03-24T13:03:41.857Z,99688.50
2023-03-24T13:04:47.819Z,99674.08
2023-03-24T13:05:58.185Z,99684.34
2023-03-24T13:07:18.215Z,99680.40
2023-03-24T13:08:29.612Z,99686.62
2023-03-24T13:09:46.182Z,99675.51
2023-03-24T13:10:54.579Z,99682.63
2023-03-24T13:12:20.785Z,99685.45
2023-03-24T13:13:30.000Z,99678.63
2023-03-24T13:14:57.902Z,99683.05
2023-03-24T13:16:05.352Z,99677.95
2023-03-24T13:17:17.212Z,99676.11
2023-03-24T13:18:37.509Z,99667.04
2023-03-24T13:19:42.227Z,99681.61
2023-03-24T13:20:50.920Z,99679.67
2023-03-24T13:21:56.479Z,99678.44
2023-03-24T13:23:17.650Z,99669.32
2023-03-24T13:24:21.627Z,99678.45
2023-03-24T13:25:41.221Z,99668.45
2023-03-24T13:27:02.951Z,99686.43
2023-03-24T13:28:15.436Z,99690.09
2023-03-24T13:29:48.451Z,99673.38
2023-03-24T13:30:53.498Z,99676.46
2023-03-24T13:32:16.039Z,99693.59
2023-03-24T13:33:30.049Z,99699.10
2023-03-24T13:34:40.480Z,99692.63
2023-03-24T13:36:06.404Z,99696.62
2023-03-24T13:37:20.010Z,99692.91
2023-03-24T13:38:32.318Z,99698.04